sensor_id;sensor_type;location;lat;lon;timestamp;P1;durP1;ratioP1;P2;durP2;ratioP2
20888;SDS011;10604;51.976;7.594;2023-07-02T21:00:00;7.57;;;4.50;;
20888;SDS011;10604;51.976;7.594;2023-07-02T21:02:25;7.57;;;4.50;;
20888;SDS011;10604;51.976;7.594;2023-07-02T21:04:51;7.72;;;4.88;;
20888;SDS011;10604;51.976;7.594;2023-07-02T21:07:24;10.63;;;4.82;;
20888;SDS011;10604;51.976;7.594;2023-07-02T21:09:51;9.00;;;5.07;;
20888;SDS011;10604;51.976;7.594;2023-07-02T21:12:17;7.68;;;4.68;;
20888;SDS011;10604;51.976;7.594;2023-07-02T21:14:42;10.53;;;5.10;;
20888;SDS011;10604;51.976;7.594;2023-07-02T21:17:07;7.88;;;4.90;;
20888;SDS011;10604;51.976;7.594;2023-07-02T21:19:36;8.55;;;4.90;;
20888;SDS011;10604;51.976;7.594;2023-07-02T21:22:02;6.93;;;4.90;;
20888;SDS011;10604;51.976;7.594;2023-07-02T21:24:27;8.57;;;5.27;;
20888;SDS011;10604;51.976;7.594;2023-07-02T21:26:53;8.82;;;4.72;;
20888;SDS011;10604;51.976;7.594;2023-07-02T21:29:18;8.27;;;5.10;;
20888;SDS011;10604;51.976;7.594;2023-07-02T21:31:44;8.47;;;5.27;;
20888;SDS011;10604;51.976;7.594;2023-07-02T21:34:09;8.80;;;4.90;;
20888;SDS011;10604;51.976;7.594;2023-07-02T21:36:34;9.77;;;5.40;;
20888;SDS011;10604;51.976;7.594;2023-07-02T21:39:00;9.40;;;5.00;;
20888;SDS011;10604;51.976;7.594;2023-07-02T21:41:25;9.50;;;5.03;;
20888;SDS011;10604;51.976;7.594;2023-07-02T21:43:52;9.85;;;5.15;;
20888;SDS011;10604;51.976;7.594;2023-07-02T21:46:18;10.57;;;5.30;;
20888;SDS011;10604;51.976;7.594;2023-07-02T21:48:45;8.43;;;5.03;;
20888;SDS011;10604;51.976;7.594;2023-07-02T21:51:11;9.07;;;5.43;;
20888;SDS011;10604;51.976;7.594;2023-07-02T21:53:36;7.85;;;4.75;;
20888;SDS011;10604;51.976;7.594;2023-07-02T21:56:01;8.70;;;5.47;;
20888;SDS011;10604;51.976;7.594;2023-07-02T21:58:27;7.63;;;4.90;;
20888;SDS011;10604;51.976;7.594;2023-07-02T22:00:52;8.60;;;5.23;;
20888;SDS011;10604;51.976;7.594;2023-07-02T22:03:18;10.05;;;5.10;;
20888;SDS011;10604;51.976;7.594;2023-07-02T22:05:43;8.03;;;5.03;;
20888;SDS011;10604;51.976;7.594;2023-07-02T22:08:14;10.40;;;5.38;;
20888;SDS011;10604;51.976;7.594;2023-07-02T22:10:39;10.40;;;5.43;;
20888;SDS011;10604;51.976;7.594;2023-07-02T22:13:05;9.43;;;5.30;;
20888;SDS011;10604;51.976;7.594;2023-07-02T22:15:31;10.98;;;5.63;;
20888;SDS011;10604;51.976;7.594;2023-07-02T22:17:56;10.53;;;5.60;;
20888;SDS011;10604;51.976;7.594;2023-07-02T22:20:26;7.27;;;5.07;;
20888;SDS011;10604;51.976;7.594;2023-07-02T22:22:53;8.40;;;5.07;;
20888;SDS011;10604;51.976;7.594;2023-07-02T22:25:18;11.20;;;5.30;;
20888;SDS011;10604;51.976;7.594;2023-07-02T22:27:44;8.05;;;5.47;;
20888;SDS011;10604;51.976;7.594;2023-07-02T22:30:10;9.33;;;5.90;;
20888;SDS011;10604;51.976;7.594;2023-07-02T22:32:37;8.00;;;5.30;;
20888;SDS011;10604;51.976;7.594;2023-07-02T22:35:02;9.07;;;5.40;;
20888;SDS011;10604;51.976;7.594;2023-07-02T22:37:29;8.30;;;5.22;;
20888;SDS011;10604;51.976;7.594;2023-07-02T22:39:56;9.07;;;5.65;;
20888;SDS011;10604;51.976;7.594;2023-07-02T22:42:22;8.40;;;5.38;;
20888;SDS011;10604;51.976;7.594;2023-07-02T22:44:48;8.10;;;5.03;;
20888;SDS011;10604;51.976;7.594;2023-07-02T22:47:13;10.50;;;5.53;;
20888;SDS011;10604;51.976;7.594;2023-07-02T22:49:39;8.60;;;4.95;;
20888;SDS011;10604;51.976;7.594;2023-07-02T22:52:06;10.80;;;5.35;;
20888;SDS011;10604;51.976;7.594;2023-07-02T22:54:32;8.50;;;5.40;;
20888;SDS011;10604;51.976;7.594;2023-07-02T22:56:57;10.32;;;5.82;;
20888;SDS011;10604;51.976;7.594;2023-07-02T22:59:24;10.02;;;5.57;;
20888;SDS011;10604;51.976;7.594;2023-07-02T23:01:50;10.75;;;6.15;;
20888;SDS011;10604;51.976;7.594;2023-07-02T23:04:15;10.67;;;6.00;;
20888;SDS011;10604;51.976;7.594;2023-07-02T23:06:41;10.67;;;5.53;;
20888;SDS011;10604;51.976;7.594;2023-07-02T23:09:06;9.47;;;6.07;;
20888;SDS011;10604;51.976;7.594;2023-07-02T23:11:32;11.00;;;6.00;;
20888;SDS011;10604;51.976;7.594;2023-07-02T23:13:57;9.70;;;5.70;;
20888;SDS011;10604;51.976;7.594;2023-07-02T23:16:23;10.50;;;5.93;;
20888;SDS011;10604;51.976;7.594;2023-07-02T23:18:48;9.85;;;6.30;;
20888;SDS011;10604;51.976;7.594;2023-07-02T23:21:14;10.10;;;5.87;;
20888;SDS011;10604;51.976;7.594;2023-07-02T23:23:42;11.63;;;6.70;;
20888;SDS011;10604;51.976;7.594;2023-07-02T23:26:08;10.55;;;6.55;;
20888;SDS011;10604;51.976;7.594;2023-07-02T23:28:35;9.93;;;5.57;;
20888;SDS011;10604;51.976;7.594;2023-07-02T23:31:01;11.93;;;6.03;;
20888;SDS011;10604;51.976;7.594;2023-07-02T23:33:29;12.48;;;6.07;;
20888;SDS011;10604;51.976;7.594;2023-07-02T23:35:58;9.47;;;5.77;;
20888;SDS011;10604;51.976;7.594;2023-07-02T23:38:24;11.43;;;5.78;;
20888;SDS011;10604;51.976;7.594;2023-07-02T23:40:49;10.63;;;5.93;;
20888;SDS011;10604;51.976;7.594;2023-07-02T23:43:15;13.37;;;6.33;;
20888;SDS011;10604;51.976;7.594;2023-07-02T23:45:40;11.07;;;5.83;;
20888;SDS011;10604;51.976;7.594;2023-07-02T23:48:06;12.17;;;6.30;;
20888;SDS011;10604;51.976;7.594;2023-07-02T23:50:31;11.75;;;5.60;;
20888;SDS011;10604;51.976;7.594;2023-07-02T23:52:58;13.60;;;6.40;;
20888;SDS011;10604;51.976;7.594;2023-07-02T23:55:23;13.40;;;6.27;;
20888;SDS011;10604;51.976;7.594;2023-07-02T23:57:49;12.03;;;6.03;;
